sensor_id;sensor_type;location;lat;lon;timestamp;pressure;altitude;pressure_sealevel;temperature;humidity
38452;BME280;24231;52.514;13.438;2022-10-16T00:01:56;100666.97;;;16.62;71.09
38452;BME280;24231;52.514;13.438;2022-10-16T00:04:23;100668.15;;;17.87;64.56
38452;BME280;24231;52.514;13.438;2022-10-16T00:06:50;100670.18;;;17.64;66.77
38452;BME280;24231;52.514;13.438;2022-10-16T00:09:18;100674.12;;;17.01;69.09
38452;BME280;24231;52.514;13.438;2022-10-16T00:11:44;100673.21;;;17.70;67.21
38452;BME280;24231;52.514;13.438;2022-10-16T00:14:13;100679.16;;;16.94;69.43
38452;BME280;24231;52.514;13.438;2022-10-16T00:16:41;100679.72;;;18.05;66.57
38452;BME280;24231;52.514;13.438;2022-10-16T00:19:09;100682.00;;;16.64;70.89
38452;BME280;24231;52.514;13.438;2022-10-16T00:21:37;100682.02;;;17.29;68.62
38452;BME280;24231;52.514;13.438;2022-10-16T00:24:06;100677.45;;;16.16;73.47
38452;BME280;24231;52.514;13.438;2022-10-16T00:26:35;100678.53;;;16.37;73.01
38452;BME280;24231;52.514;13.438;2022-10-16T00:29:03;100685.55;;;16.57;72.57
38452;BME280;24231;52.514;13.438;2022-10-16T00:31:31;100692.62;;;16.69;72.45
38452;BME280;24231;52.514;13.438;2022-10-16T00:33:58;100693.82;;;16.81;70.77
38452;BME280;24231;52.514;13.438;2022-10-16T00:36:26;100696.65;;;17.12;71.13
38452;BME280;24231;52.514;13.438;2022-10-16T00:38:55;100699.10;;;17.71;68.24
38452;BME280;24231;52.514;13.438;2022-10-16T00:41:24;100699.10;;;17.52;66.52
38452;BME280;24231;52.514;13.438;2022-10-16T00:43:53;100699.19;;;16.72;71.31
38452;BME280;24231;52.514;13.438;2022-10-16T00:46:22;100697.29;;;17.54;68.34
38452;BME280;24231;52.514;13.438;2022-10-16T00:48:51;100691.01;;;18.38;65.43
38452;BME280;24231;52.514;13.438;2022-10-16T00:51:24;100690.18;;;18.74;64.72
38452;BME280;24231;52.514;13.438;2022-10-16T00:53:52;100694.42;;;18.56;65.09
38452;BME280;24231;52.514;13.438;2022-10-16T00:56:19;100697.55;;;17.37;68.71
38452;BME280;24231;52.514;13.438;2022-10-16T00:58:46;100696.04;;;17.84;67.63
38452;BME280;24231;52.514;13.438;2022-10-16T01:01:13;100700.66;;;17.88;67.61
38452;BME280;24231;52.514;13.438;2022-10-16T01:03:40;100707.06;;;17.86;67.49
38452;BME280;24231;52.514;13.438;2022-10-16T01:06:20;100710.83;;;17.06;70.55
38452;BME280;24231;52.514;13.438;2022-10-16T01:08:57;100710.37;;;17.26;70.40
38452;BME280;24231;52.514;13.438;2022-10-16T01:11:30;100711.74;;;16.71;72.08
38452;BME280;24231;52.514;13.438;2022-10-16T01:14:05;100705.02;;;17.32;70.42
38452;BME280;24231;52.514;13.438;2022-10-16T01:16:38;100710.28;;;17.38;70.75
38452;BME280;24231;52.514;13.438;2022-10-16T01:19:12;100707.76;;;17.86;69.27
38452;BME280;24231;52.514;13.438;2022-10-16T01:21:42;100710.85;;;16.89;72.02
38452;BME280;24231;52.514;13.438;2022-10-16T01:24:17;100714.64;;;18.41;66.91
38452;BME280;24231;52.514;13.438;2022-10-16T01:27:02;100715.21;;;17.15;71.11
38452;BME280;24231;52.514;13.438;2022-10-16T01:29:34;100719.04;;;17.11;70.21
38452;BME280;24231;52.514;13.438;2022-10-16T01:32:11;100722.14;;;16.56;72.76
38452;BME280;24231;52.514;13.438;2022-10-16T01:34:47;100723.61;;;17.62;69.56
38452;BME280;24231;52.514;13.438;2022-10-16T01:37:20;100723.23;;;17.03;70.68
38452;BME280;24231;52.514;13.438;2022-10-16T01:39:50;100727.38;;;17.08;71.27
38452;BME280;24231;52.514;13.438;2022-10-16T01:42:25;100727.43;;;16.83;72.26
38452;BME280;24231;52.514;13.438;2022-10-16T01:44:56;100731.50;;;16.77;73.41
38452;BME280;24231;52.514;13.438;2022-10-16T01:47:27;100733.81;;;17.46;70.70
38452;BME280;24231;52.514;13.438;2022-10-16T01:49:58;100733.17;;;17.21;71.94
38452;BME280;24231;52.514;13.438;2022-10-16T01:52:28;100732.56;;;16.90;72.85
38452;BME280;24231;52.514;13.438;2022-10-16T01:54:58;100731.97;;;16.31;74.84
38452;BME280;24231;52.514;13.438;2022-10-16T01:57:28;100734.32;;;17.00;72.30
38452;BME280;24231;52.514;13.438;2022-10-16T02:00:01;100733.42;;;16.27;74.21
38452;BME280;24231;52.514;13.438;2022-10-16T02:02:30;100740.89;;;16.14;76.13
38452;BME280;24231;52.514;13.438;2022-10-16T02:05:03;100743.04;;;16.67;73.72
38452;BME280;24231;52.514;13.438;2022-10-16T02:07:31;100749.90;;;15.66;77.22
38452;BME280;24231;52.514;13.438;2022-10-16T02:09:58;100744.32;;;16.86;74.16
38452;BME280;24231;52.514;13.438;2022-10-16T02:12:28;100740.01;;;17.36;70.74
38452;BME280;24231;52.514;13.438;2022-10-16T02:14:57;100748.90;;;16.97;71.84
38452;BME280;24231;52.514;13.438;2022-10-16T02:17:25;100759.06;;;17.62;69.61
38452;BME280;24231;52.514;13.438;2022-10-16T02:19:54;100759.04;;;18.02;68.20
38452;BME280;24231;52.514;13.438;2022-10-16T02:22:26;100765.96;;;18.16;68.20
38452;BME280;24231;52.514;13.438;2022-10-16T02:24:57;100772.96;;;18.33;67.13
38452;BME280;24231;52.514;13.438;2022-10-16T02:27:30;100778.72;;;17.38;71.07
38452;BME280;24231;52.514;13.438;2022-10-16T02:30:03;100767.51;;;17.38;71.31
38452;BME280;24231;52.514;13.438;2022-10-16T02:32:32;100764.53;;;16.82;72.57
38452;BME280;24231;52.514;13.438;2022-10-16T02:35:01;100762.22;;;17.57;69.97
38452;BME280;24231;52.514;13.438;2022-10-16T02:37:29;100762.02;;;16.97;72.98
38452;BME280;24231;52.514;13.438;2022-10-16T02:39:57;100762.82;;;16.57;75.13
38452;BME280;24231;52.514;13.438;2022-10-16T02:42:28;100773.10;;;15.87;76.95
38452;BME280;24231;52.514;13.438;2022-10-16T02:44:55;100770.55;;;17.41;71.97
38452;BME280;24231;52.514;13.438;2022-10-16T02:47:22;100767.16;;;17.54;70.96
38452;BME280;24231;52.514;13.438;2022-10-16T02:49:49;100765.65;;;16.75;73.77
38452;BME280;24231;52.514;13.438;2022-10-16T02:52:16;100774.16;;;16.01;75.49
38452;BME280;24231;52.514;13.438;2022-10-16T02:54:43;100772.13;;;16.59;75.00
38452;BME280;24231;52.514;13.438;2022-10-16T02:57:10;100773.87;;;17.81;69.49
38452;BME280;24231;52.514;13.438;2022-10-16T02:59:37;100777.15;;;18.23;67.89
38452;BME280;24231;52.514;13.438;2022-10-16T03:02:05;100776.33;;;17.02;71.82
38452;BME280;24231;52.514;13.438;2022-10-16T03:04:32;100777.18;;;16.14;75.72
38452;BME280;24231;52.514;13.438;2022-10-16T03:06:59;100773.02;;;17.97;69.04
38452;BME280;24231;52.514;13.438;2022-10-16T03:09:27;100774.49;;;16.95;72.12
38452;BME280;24231;52.514;13.438;2022-10-16T03:11:54;100780.35;;;16.70;72.47
38452;BME280;24231;52.514;13.438;2022-10-16T03:14:21;100785.56;;;17.39;70.52
38452;BME280;24231;52.514;13.438;2022-10-16T03:16:48;100787.43;;;18.39;66.49
38452;BME280;24231;52.514;13.438;2022-10-16T03:19:16;100792.92;;;17.22;70.44
38452;BME280;24231;52.514;13.438;2022-10-16T03:21:43;100788.06;;;16.75;73.20
38452;BME280;24231;52.514;13.438;2022-10-16T03:24:10;100796.99;;;16.27;74.31
38452;BME280;24231;52.514;13.438;2022-10-16T03:26:37;100794.74;;;16.92;72.90
38452;BME280;24231;52.514;13.438;2022-10-16T03:29:05;100796.21;;;16.25;75.00
38452;BME280;24231;52.514;13.438;2022-10-16T03:31:31;100796.77;;;16.55;73.83
38452;BME280;24231;52.514;13.438;2022-10-16T03:33:59;100802.46;;;17.15;71.18
38452;BME280;24231;52.514;13.438;2022-10-16T03:36:26;100807.40;;;17.67;69.23
38452;BME280;24231;52.514;13.438;2022-10-16T03:38:54;100810.88;;;16.63;72.91
38452;BME280;24231;52.514;13.438;2022-10-16T03:41:21;100816.64;;;16.67;73.00
38452;BME280;24231;52.514;13.438;2022-10-16T03:43:48;100821.56;;;16.94;70.88
38452;BME280;24231;52.514;13.438;2022-10-16T03:46:15;100823.12;;;16.94;71.56
38452;BME280;24231;52.514;13.438;2022-10-16T03:48:42;100821.92;;;17.16;70.85
38452;BME280;24231;52.514;13.438;2022-10-16T03:51:09;100833.00;;;17.40;69.14
38452;BME280;24231;52.514;13.438;2022-10-16T03:53:37;100841.93;;;17.18;70.29
38452;BME280;24231;52.514;13.438;2022-10-16T03:56:05;100847.67;;;16.51;72.42
38452;BME280;24231;52.514;13.438;2022-10-16T03:58:32;100843.74;;;16.70;72.08
38452;BME280;24231;52.514;13.438;2022-10-16T04:00:59;100848.08;;;16.66;73.00
38452;BME280;24231;52.514;13.438;2022-10-16T04:03:26;100852.30;;;16.36;73.51
38452;BME280;24231;52.514;13.438;2022-10-16T04:05:53;100843.18;;;16.98;71.48
38452;BME280;24231;52.514;13.438;2022-10-16T04:08:21;100845.80;;;17.69;68.88
38452;BME280;24231;52.514;13.438;2022-10-16T04:10:48;100851.52;;;17.46;68.78
38452;BME280;24231;52.514;13.438;2022-10-16T04:13:16;100851.13;;;17.19;70.11
38452;BME280;24231;52.514;13.438;2022-10-16T04:15:45;100859.00;;;17.52;69.29
38452;BME280;24231;52.514;13.438;2022-10-16T04:18:12;100858.00;;;17.69;68.91
38452;BME280;24231;52.514;13.438;2022-10-16T04:20:40;100856.15;;;17.83;67.79
38452;BME280;24231;52.514;13.438;2022-10-16T04:23:07;100860.36;;;17.65;67.96
38452;BME280;24231;52.514;13.438;2022-10-16T04:25:34;100857.22;;;17.43;68.59
38452;BME280;24231;52.514;13.438;2022-10-16T04:28:02;100857.24;;;16.76;71.54
38452;BME280;24231;52.514;13.438;2022-10-16T04:30:29;100858.87;;;17.66;67.52
38452;BME280;24231;52.514;13.438;2022-10-16T04:32:56;100857.80;;;16.11;74.60
38452;BME280;24231;52.514;13.438;2022-10-16T04:35:23;100846.60;;;16.81;71.67
38452;BME280;24231;52.514;13.438;2022-10-16T04:37:50;100843.82;;;18.04;66.86
38452;BME280;24231;52.514;13.438;2022-10-16T04:40:17;100842.53;;;17.12;69.12
38452;BME280;24231;52.514;13.438;2022-10-16T04:42:44;100840.46;;;16.42;73.58
38452;BME280;24231;52.514;13.438;2022-10-16T04:45:11;100836.71;;;17.49;68.33
38452;BME280;24231;52.514;13.438;2022-10-16T04:47:38;100836.87;;;17.56;67.61
38452;BME280;24231;52.514;13.438;2022-10-16T04:50:06;100832.52;;;17.62;67.52
38452;BME280;24231;52.514;13.438;2022-10-16T04:52:33;100835.16;;;18.62;64.39
38452;BME280;24231;52.514;13.438;2022-10-16T04:55:00;100839.83;;;18.14;65.07
38452;BME280;24231;52.514;13.438;2022-10-16T04:57:28;100834.50;;;17.81;66.06
38452;BME280;24231;52.514;13.438;2022-10-16T04:59:55;100839.30;;;17.60;66.92
38452;BME280;24231;52.514;13.438;2022-10-16T05:02:22;100845.80;;;16.51;71.78
38452;BME280;24231;52.514;13.438;2022-10-16T05:04:49;100853.78;;;16.82;71.04
38452;BME280;24231;52.514;13.438;2022-10-16T05:07:17;100858.07;;;17.16;69.89
38452;BME280;24231;52.514;13.438;2022-10-16T05:09:43;100869.29;;;16.68;70.79
38452;BME280;24231;52.514;13.438;2022-10-16T05:12:11;100881.95;;;15.98;73.63
38452;BME280;24231;52.514;13.438;2022-10-16T05:14:37;100885.37;;;15.98;74.30
38452;BME280;24231;52.514;13.438;2022-10-16T05:17:04;100887.52;;;16.34;73.10
38452;BME280;24231;52.514;13.438;2022-10-16T05:19:31;100883.14;;;18.29;65.03
38452;BME280;24231;52.514;13.438;2022-10-16T05:21:59;100881.81;;;17.00;69.58
38452;BME280;24231;52.514;13.438;2022-10-16T05:24:26;100883.48;;;17.15;69.21
38452;BME280;24231;52.514;13.438;2022-10-16T05:26:54;100883.74;;;16.63;68.84
38452;BME280;24231;52.514;13.438;2022-10-16T05:29:22;100882.57;;;17.11;68.46
38452;BME280;24231;52.514;13.438;2022-10-16T05:31:50;100883.92;;;16.33;72.37
38452;BME280;24231;52.514;13.438;2022-10-16T05:34:18;100887.77;;;15.86;74.20
38452;BME280;24231;52.514;13.438;2022-10-16T05:36:45;100882.55;;;15.50;76.11
38452;BME280;24231;52.514;13.438;2022-10-16T05:39:14;100878.82;;;15.65;76.52
38452;BME280;24231;52.514;13.438;2022-10-16T05:41:42;100884.93;;;15.19;78.76
38452;BME280;24231;52.514;13.438;2022-10-16T05:44:09;100895.05;;;14.72;80.90
38452;BME280;24231;52.514;13.438;2022-10-16T05:46:36;100898.66;;;15.20;79.35
38452;BME280;24231;52.514;13.438;2022-10-16T05:49:03;100900.02;;;15.35;78.19
38452;BME280;24231;52.514;13.438;2022-10-16T05:51:30;100908.04;;;16.39;73.48
38452;BME280;24231;52.514;13.438;2022-10-16T05:53:58;100905.52;;;16.21;73.43
38452;BME280;24231;52.514;13.438;2022-10-16T05:56:24;100900.02;;;17.43;69.13
38452;BME280;24231;52.514;13.438;2022-10-16T05:58:51;100896.86;;;17.15;68.80
38452;BME280;24231;52.514;13.438;2022-10-16T06:01:19;100896.83;;;17.23;69.50
38452;BME280;24231;52.514;13.438;2022-10-16T06:03:46;100895.24;;;17.63;67.72
38452;BME280;24231;52.514;13.438;2022-10-16T06:06:15;100898.47;;;16.96;69.21
38452;BME280;24231;52.514;13.438;2022-10-16T06:08:44;100905.51;;;15.90;73.62
38452;BME280;24231;52.514;13.438;2022-10-16T06:11:14;100903.15;;;15.15;77.47
38452;BME280;24231;52.514;13.438;2022-10-16T06:13:42;100911.02;;;16.40;72.66
38452;BME280;24231;52.514;13.438;2022-10-16T06:16:10;100917.13;;;16.35;73.20
38452;BME280;24231;52.514;13.438;2022-10-16T06:18:37;100908.33;;;17.97;66.82
38452;BME280;24231;52.514;13.438;2022-10-16T06:21:08;100913.64;;;19.16;61.99
38452;BME280;24231;52.514;13.438;2022-10-16T06:23:36;100920.46;;;17.68;67.45
38452;BME280;24231;52.514;13.438;2022-10-16T06:26:06;100923.77;;;17.27;68.25
38452;BME280;24231;52.514;13.438;2022-10-16T06:28:34;100912.74;;;18.08;65.21
38452;BME280;24231;52.514;13.438;2022-10-16T06:31:02;100916.41;;;15.79;74.87
38452;BME280;24231;52.514;13.438;2022-10-16T06:33:29;100926.70;;;16.16;73.78
38452;BME280;24231;52.514;13.438;2022-10-16T06:36:01;100932.51;;;15.94;75.22
38452;BME280;24231;52.514;13.438;2022-10-16T06:38:28;100936.42;;;16.01;75.00
38452;BME280;24231;52.514;13.438;2022-10-16T06:40:55;100938.10;;;17.62;69.04
38452;BME280;24231;52.514;13.438;2022-10-16T06:43:21;100946.65;;;16.64;71.45
38452;BME280;24231;52.514;13.438;2022-10-16T06:45:51;100944.59;;;18.38;65.40
38452;BME280;24231;52.514;13.438;2022-10-16T06:48:19;100949.12;;;17.81;66.55
38452;BME280;24231;52.514;13.438;2022-10-16T06:50:55;100960.63;;;17.19;69.14
38452;BME280;24231;52.514;13.438;2022-10-16T06:53:23;100960.00;;;17.13;68.91
38452;BME280;24231;52.514;13.438;2022-10-16T06:55:51;100961.54;;;16.13;73.70
38452;BME280;24231;52.514;13.438;2022-10-16T06:58:18;100961.15;;;16.78;71.18
38452;BME280;24231;52.514;13.438;2022-10-16T07:00:45;100954.98;;;18.05;66.17
38452;BME280;24231;52.514;13.438;2022-10-16T07:03:12;100958.90;;;19.39;61.65
38452;BME280;24231;52.514;13.438;2022-10-16T07:05:40;100969.93;;;17.34;67.84
38452;BME280;24231;52.514;13.438;2022-10-16T07:08:09;100964.21;;;17.53;68.08
38452;BME280;24231;52.514;13.438;2022-10-16T07:10:36;100969.96;;;19.68;60.40
38452;BME280;24231;52.514;13.438;2022-10-16T07:13:03;100975.90;;;17.89;67.31
38452;BME280;24231;52.514;13.438;2022-10-16T07:15:30;100981.56;;;18.94;63.11
38452;BME280;24231;52.514;13.438;2022-10-16T07:17:57;100990.91;;;17.49;68.34
38452;BME280;24231;52.514;13.438;2022-10-16T07:20:24;100988.42;;;19.25;62.53
38452;BME280;24231;52.514;13.438;2022-10-16T07:22:52;100984.72;;;19.89;59.99
38452;BME280;24231;52.514;13.438;2022-10-16T07:25:19;100978.40;;;20.38;58.77
38452;BME280;24231;52.514;13.438;2022-10-16T07:27:46;100984.90;;;19.50;60.43
38452;BME280;24231;52.514;13.438;2022-10-16T07:30:13;100992.68;;;18.00;66.04
38452;BME280;24231;52.514;13.438;2022-10-16T07:32:40;100988.46;;;20.12;59.57
38452;BME280;24231;52.514;13.438;2022-10-16T07:35:07;100991.14;;;17.98;66.66
38452;BME280;24231;52.514;13.438;2022-10-16T07:37:34;100978.62;;;17.90;66.45
38452;BME280;24231;52.514;13.438;2022-10-16T07:40:02;100979.52;;;18.96;64.36
38452;BME280;24231;52.514;13.438;2022-10-16T07:42:29;100993.29;;;17.21;70.33
38452;BME280;24231;52.514;13.438;2022-10-16T07:44:56;101000.55;;;16.98;71.35
38452;BME280;24231;52.514;13.438;2022-10-16T07:47:23;100995.91;;;18.78;65.81
38452;BME280;24231;52.514;13.438;2022-10-16T07:49:49;100999.94;;;18.27;66.27
38452;BME280;24231;52.514;13.438;2022-10-16T07:52:17;100991.39;;;16.97;70.50
38452;BME280;24231;52.514;13.438;2022-10-16T07:54:44;100993.94;;;17.09;70.94
38452;BME280;24231;52.514;13.438;2022-10-16T07:57:11;100988.84;;;18.04;68.14
38452;BME280;24231;52.514;13.438;2022-10-16T07:59:38;100991.39;;;19.09;64.26
38452;BME280;24231;52.514;13.438;2022-10-16T08:02:06;100986.46;;;18.08;67.08
38452;BME280;24231;52.514;13.438;2022-10-16T08:04:33;100997.69;;;17.40;69.94
38452;BME280;24231;52.514;13.438;2022-10-16T08:07:00;101004.53;;;18.19;67.97
38452;BME280;24231;52.514;13.438;2022-10-16T08:09:27;101016.78;;;18.98;64.62
38452;BME280;24231;52.514;13.438;2022-10-16T08:11:54;101018.18;;;17.77;68.79
38452;BME280;24231;52.514;13.438;2022-10-16T08:14:21;101028.71;;;17.97;67.49
38452;BME280;24231;52.514;13.438;2022-10-16T08:16:48;101032.01;;;18.70;65.18
38452;BME280;24231;52.514;13.438;2022-10-16T08:19:15;101035.72;;;18.74;66.23
38452;BME280;24231;52.514;13.438;2022-10-16T08:21:42;101028.23;;;18.27;68.51
38452;BME280;24231;52.514;13.438;2022-10-16T08:24:09;101024.43;;;17.70;69.20
38452;BME280;24231;52.514;13.438;2022-10-16T08:26:36;101021.38;;;17.61;70.24
38452;BME280;24231;52.514;13.438;2022-10-16T08:29:03;101022.21;;;18.54;66.40
38452;BME280;24231;52.514;13.438;2022-10-16T08:31:30;101022.97;;;18.97;65.22
38452;BME280;24231;52.514;13.438;2022-10-16T08:33:57;101024.14;;;19.04;64.98
38452;BME280;24231;52.514;13.438;2022-10-16T08:36:24;101033.47;;;18.77;65.12
38452;BME280;24231;52.514;13.438;2022-10-16T08:38:51;101036.57;;;18.63;65.65
38452;BME280;24231;52.514;13.438;2022-10-16T08:41:41;101031.94;;;18.13;67.60
38452;BME280;24231;52.514;13.438;2022-10-16T08:44:29;101033.52;;;18.99;65.00
38452;BME280;24231;52.514;13.438;2022-10-16T08:47:02;101034.78;;;18.08;68.36
38452;BME280;24231;52.514;13.438;2022-10-16T08:49:32;101029.23;;;20.18;61.14
38452;BME280;24231;52.514;13.438;2022-10-16T08:51:59;101028.21;;;20.35;60.29
38452;BME280;24231;52.514;13.438;2022-10-16T08:54:30;101032.47;;;18.92;64.61
38452;BME280;24231;52.514;13.438;2022-10-16T08:57:07;101034.73;;;19.61;62.05
38452;BME280;24231;52.514;13.438;2022-10-16T08:59:36;101038.50;;;19.73;62.41
38452;BME280;24231;52.514;13.438;2022-10-16T09:02:20;101042.78;;;18.99;64.13
38452;BME280;24231;52.514;13.438;2022-10-16T09:04:59;101048.11;;;18.58;65.50
38452;BME280;24231;52.514;13.438;2022-10-16T09:07:34;101054.25;;;18.08;68.23
38452;BME280;24231;52.514;13.438;2022-10-16T09:10:19;101056.69;;;18.65;66.64
38452;BME280;24231;52.514;13.438;2022-10-16T09:12:55;101058.80;;;18.96;65.58
38452;BME280;24231;52.514;13.438;2022-10-16T09:15:30;101059.64;;;19.15;64.40
38452;BME280;24231;52.514;13.438;2022-10-16T09:18:02;101067.48;;;19.21;64.08
38452;BME280;24231;52.514;13.438;2022-10-16T09:20:36;101066.05;;;20.71;58.84
38452;BME280;24231;52.514;13.438;2022-10-16T09:23:14;101073.64;;;18.52;66.14
38452;BME280;24231;52.514;13.438;2022-10-16T09:25:44;101067.31;;;19.11;63.86
38452;BME280;24231;52.514;13.438;2022-10-16T09:28:11;101059.99;;;19.87;61.55
38452;BME280;24231;52.514;13.438;2022-10-16T09:30:38;101060.82;;;19.37;62.93
38452;BME280;24231;52.514;13.438;2022-10-16T09:33:05;101059.10;;;20.23;60.26
38452;BME280;24231;52.514;13.438;2022-10-16T09:35:37;101060.10;;;20.00;60.50
38452;BME280;24231;52.514;13.438;2022-10-16T09:38:07;101065.45;;;19.71;60.83
38452;BME280;24231;52.514;13.438;2022-10-16T09:40:36;101068.44;;;20.05;60.39
38452;BME280;24231;52.514;13.438;2022-10-16T09:43:16;101072.15;;;19.34;62.62
38452;BME280;24231;52.514;13.438;2022-10-16T09:45:57;101077.51;;;19.31;62.92
38452;BME280;24231;52.514;13.438;2022-10-16T09:48:26;101080.20;;;18.91;64.97
38452;BME280;24231;52.514;13.438;2022-10-16T09:50:59;101079.60;;;19.61;61.53
38452;BME280;24231;52.514;13.438;2022-10-16T09:53:39;101089.61;;;19.06;63.26
38452;BME280;24231;52.514;13.438;2022-10-16T09:56:10;101093.13;;;19.33;62.36
38452;BME280;24231;52.514;13.438;2022-10-16T09:58:37;101091.21;;;19.17;62.37
38452;BME280;24231;52.514;13.438;2022-10-16T10:01:04;101099.35;;;19.56;61.57
38452;BME280;24231;52.514;13.438;2022-10-16T10:03:36;101096.40;;;19.74;60.15
38452;BME280;24231;52.514;13.438;2022-10-16T10:06:14;101094.14;;;20.42;58.55
38452;BME280;24231;52.514;13.438;2022-10-16T10:08:54;101095.93;;;20.80;57.37
38452;BME280;24231;52.514;13.438;2022-10-16T10:11:40;101102.68;;;20.86;56.56
38452;BME280;24231;52.514;13.438;2022-10-16T10:14:16;101110.65;;;20.75;57.07
38452;BME280;24231;52.514;13.438;2022-10-16T10:16:44;101109.32;;;20.84;56.22
38452;BME280;24231;52.514;13.438;2022-10-16T10:19:16;101110.26;;;21.32;54.79
38452;BME280;24231;52.514;13.438;2022-10-16T10:21:43;101115.33;;;19.89;58.59
38452;BME280;24231;52.514;13.438;2022-10-16T10:24:12;101110.57;;;20.60;56.92
38452;BME280;24231;52.514;13.438;2022-10-16T10:26:48;101113.47;;;20.30;57.45
38452;BME280;24231;52.514;13.438;2022-10-16T10:29:25;101116.15;;;19.87;59.28
38452;BME280;24231;52.514;13.438;2022-10-16T10:32:02;101114.48;;;20.98;56.16
38452;BME280;24231;52.514;13.438;2022-10-16T10:34:49;101117.51;;;20.57;56.50
38452;BME280;24231;52.514;13.438;2022-10-16T10:37:32;101120.95;;;20.19;57.10
38452;BME280;24231;52.514;13.438;2022-10-16T10:40:08;101134.23;;;20.82;54.98
38452;BME280;24231;52.514;13.438;2022-10-16T10:42:44;101136.49;;;21.03;54.20
38452;BME280;24231;52.514;13.438;2022-10-16T10:45:21;101134.64;;;21.78;51.69
38452;BME280;24231;52.514;13.438;2022-10-16T10:48:10;101130.67;;;21.07;54.44
38452;BME280;24231;52.514;13.438;2022-10-16T10:50:45;101133.76;;;21.82;51.46
38452;BME280;24231;52.514;13.438;2022-10-16T10:53:27;101126.76;;;21.79;51.24
38452;BME280;24231;52.514;13.438;2022-10-16T10:56:04;101129.15;;;20.53;55.41
38452;BME280;24231;52.514;13.438;2022-10-16T10:58:51;101137.79;;;19.69;56.88
38452;BME280;24231;52.514;13.438;2022-10-16T11:01:29;101132.58;;;19.89;55.80
38452;BME280;24231;52.514;13.438;2022-10-16T11:04:15;101131.77;;;21.39;52.28
38452;BME280;24231;52.514;13.438;2022-10-16T11:06:50;101132.29;;;21.03;53.74
38452;BME280;24231;52.514;13.438;2022-10-16T11:09:21;101130.39;;;21.02;52.21
38452;BME280;24231;52.514;13.438;2022-10-16T11:11:52;101134.84;;;20.35;53.59
38452;BME280;24231;52.514;13.438;2022-10-16T11:14:25;101144.38;;;21.61;50.01
38452;BME280;24231;52.514;13.438;2022-10-16T11:16:57;101143.87;;;20.93;51.86
38452;BME280;24231;52.514;13.438;2022-10-16T11:19:33;101141.65;;;21.44;51.08
38452;BME280;24231;52.514;13.438;2022-10-16T11:22:07;101140.64;;;21.76;49.51
38452;BME280;24231;52.514;13.438;2022-10-16T11:24:45;101131.09;;;23.03;46.52
38452;BME280;24231;52.514;13.438;2022-10-16T11:27:18;101136.43;;;21.55;49.46
38452;BME280;24231;52.514;13.438;2022-10-16T11:29:52;101135.61;;;22.95;45.85
38452;BME280;24231;52.514;13.438;2022-10-16T11:32:25;101138.64;;;21.25;49.62
38452;BME280;24231;52.514;13.438;2022-10-16T11:34:59;101142.27;;;22.42;46.46
38452;BME280;24231;52.514;13.438;2022-10-16T11:37:31;101135.18;;;21.59;48.54
38452;BME280;24231;52.514;13.438;2022-10-16T11:40:16;101138.59;;;21.65;48.62
38452;BME280;24231;52.514;13.438;2022-10-16T11:42:52;101135.68;;;20.82;49.86
38452;BME280;24231;52.514;13.438;2022-10-16T11:45:29;101135.26;;;20.37;51.25
38452;BME280;24231;52.514;13.438;2022-10-16T11:48:04;101129.88;;;20.85;49.97
38452;BME280;24231;52.514;13.438;2022-10-16T11:50:42;101132.33;;;20.76;49.74
38452;BME280;24231;52.514;13.438;2022-10-16T11:53:16;101132.59;;;20.55;48.41
38452;BME280;24231;52.514;13.438;2022-10-16T11:55:48;101133.73;;;19.64;50.17
38452;BME280;24231;52.514;13.438;2022-10-16T11:58:22;101145.27;;;19.80;50.90
38452;BME280;24231;52.514;13.438;2022-10-16T12:00:58;101142.45;;;19.89;49.69
38452;BME280;24231;52.514;13.438;2022-10-16T12:03:33;101144.91;;;20.36;49.02
38452;BME280;24231;52.514;13.438;2022-10-16T12:06:16;101154.61;;;20.35;48.91
38452;BME280;24231;52.514;13.438;2022-10-16T12:08:49;101156.90;;;20.26;48.99
38452;BME280;24231;52.514;13.438;2022-10-16T12:11:24;101160.23;;;19.94;49.74
38452;BME280;24231;52.514;13.438;2022-10-16T12:14:07;101165.17;;;20.69;48.07
38452;BME280;24231;52.514;13.438;2022-10-16T12:16:52;101169.71;;;19.84;50.03
38452;BME280;24231;52.514;13.438;2022-10-16T12:19:21;101172.61;;;19.90;49.26
38452;BME280;24231;52.514;13.438;2022-10-16T12:21:49;101169.19;;;20.30;48.69
38452;BME280;24231;52.514;13.438;2022-10-16T12:24:27;101168.31;;;19.37;50.43
38452;BME280;24231;52.514;13.438;2022-10-16T12:26:57;101174.73;;;19.93;48.68
38452;BME280;24231;52.514;13.438;2022-10-16T12:29:32;101174.28;;;19.66;48.70
38452;BME280;24231;52.514;13.438;2022-10-16T12:32:01;101171.75;;;19.53;49.33
38452;BME280;24231;52.514;13.438;2022-10-16T12:34:34;101175.54;;;19.49;48.73
38452;BME280;24231;52.514;13.438;2022-10-16T12:37:11;101174.30;;;19.85;47.36
38452;BME280;24231;52.514;13.438;2022-10-16T12:39:40;101176.86;;;19.78;47.73
38452;BME280;24231;52.514;13.438;2022-10-16T12:42:22;101182.75;;;19.83;47.86
38452;BME280;24231;52.514;13.438;2022-10-16T12:44:50;101183.33;;;20.48;46.69
38452;BME280;24231;52.514;13.438;2022-10-16T12:47:21;101177.57;;;20.04;47.69
38452;BME280;24231;52.514;13.438;2022-10-16T12:49:51;101182.98;;;19.51;47.63
38452;BME280;24231;52.514;13.438;2022-10-16T12:52:29;101190.49;;;19.43;48.38
38452;BME280;24231;52.514;13.438;2022-10-16T12:55:01;101194.06;;;20.49;46.44
38452;BME280;24231;52.514;13.438;2022-10-16T12:57:37;101189.76;;;21.35;44.38